createdAt,value
2022-11-07T00:02:12.124Z,999.86
2022-11-07T00:07:11.805Z,999.99
2022-11-07T00:12:11.797Z,999.88
2022-11-07T00:17:11.711Z,999.91
2022-11-07T00:22:11.636Z,999.83
2022-11-07T00:27:11.584Z,999.74
2022-11-07T00:32:11.476Z,999.83
2022-11-07T00:37:11.436Z,999.90
2022-11-07T00:42:11.367Z,999.99
2022-11-07T00:47:11.298Z,999.98
2022-11-07T00:52:11.271Z,999.87
2022-11-07T00:57:11.197Z,999.94
2022-11-07T01:02:11.188Z,999.97
2022-11-07T01:07:11.077Z,1000.09
2022-11-07T01:12:10.976Z,1000.09
2022-11-07T01:17:10.956Z,999.95
2022-11-07T01:22:10.890Z,999.82
2022-11-07T01:27:10.812Z,999.74
2022-11-07T01:32:11.008Z,999.63
2022-11-07T01:37:10.672Z,999.78
2022-11-07T01:42:10.616Z,999.63
2022-11-07T01:47:10.527Z,999.66
2022-11-07T01:52:10.749Z,999.86
2022-11-07T01:57:10.473Z,999.84
2022-11-07T02:02:10.504Z,999.76
2022-11-07T02:07:10.308Z,999.96
2022-11-07T02:12:10.254Z,999.91
2022-11-07T02:17:10.186Z,999.84
2022-11-07T02:22:10.103Z,999.69
2022-11-07T02:27:10.015Z,999.63
2022-11-07T02:32:09.975Z,999.63
2022-11-07T02:37:09.868Z,999.65
2022-11-07T02:42:09.815Z,999.70
2022-11-07T02:47:09.773Z,999.73
2022-11-07T02:52:09.784Z,999.65
2022-11-07T02:57:09.663Z,999.60
2022-11-07T03:02:09.713Z,999.50
2022-11-07T03:07:09.506Z,999.52
2022-11-07T03:12:09.432Z,999.77
2022-11-07T03:17:09.384Z,999.82
2022-11-07T03:22:11.216Z,999.85
2022-11-07T03:27:11.353Z,999.94
2022-11-07T03:32:09.152Z,999.99
2022-11-07T03:37:09.122Z,1000.08
2022-11-07T03:42:09.064Z,1000.26
2022-11-07T03:47:09.002Z,1000.36
2022-11-07T03:52:08.910Z,1000.45
2022-11-07T03:57:08.864Z,1000.60
2022-11-07T04:02:08.909Z,1000.68
2022-11-07T04:07:08.709Z,1000.67
2022-11-07T04:12:08.676Z,1000.59
2022-11-07T04:17:08.621Z,1000.83
2022-11-07T04:22:08.568Z,1000.78
2022-11-07T04:27:08.450Z,1000.86
2022-11-07T04:32:08.382Z,1000.77
2022-11-07T04:37:09.571Z,1000.96
2022-11-07T04:42:08.253Z,1001.05
2022-11-07T04:47:08.228Z,1001.02
2022-11-07T04:52:11.968Z,1000.93
2022-11-07T04:57:08.104Z,1001.00
2022-11-07T05:02:08.097Z,1001.08
2022-11-07T05:07:07.906Z,1001.08
2022-11-07T05:12:07.836Z,1001.06
2022-11-07T05:17:07.816Z,1001.09
2022-11-07T05:22:07.768Z,1001.09
2022-11-07T05:27:07.670Z,1001.24
2022-11-07T05:32:07.645Z,1001.22
2022-11-07T05:37:07.576Z,1001.28
2022-11-07T05:42:07.455Z,1001.31
2022-11-07T05:47:07.436Z,1001.27
2022-11-07T05:52:07.369Z,1001.26
2022-11-07T05:57:07.297Z,1001.46
2022-11-07T06:02:07.375Z,1001.46
2022-11-07T06:07:07.153Z,1001.47
2022-11-07T06:12:07.117Z,1001.64
2022-11-07T06:17:07.073Z,1001.70
2022-11-07T06:22:06.997Z,1001.76
2022-11-07T06:27:06.882Z,1001.70
2022-11-07T06:32:06.855Z,1001.68
2022-11-07T06:37:06.771Z,1001.77
2022-11-07T06:42:06.693Z,1001.85
2022-11-07T06:47:06.637Z,1001.71
2022-11-07T06:52:06.582Z,1001.74
2022-11-07T06:57:06.630Z,1001.82
2022-11-07T07:02:06.538Z,1001.76
2022-11-07T07:07:06.373Z,1001.96
2022-11-07T07:12:06.323Z,1002.04
2022-11-07T07:17:06.258Z,1002.00
2022-11-07T07:22:06.216Z,1001.96
2022-11-07T07:27:06.118Z,1001.96
2022-11-07T07:32:06.087Z,1001.99
2022-11-07T07:37:05.998Z,1002.06
2022-11-07T07:42:05.897Z,1002.05
2022-11-07T07:47:11.077Z,1001.91
2022-11-07T07:52:06.825Z,1001.90
2022-11-07T07:57:05.741Z,1001.99
2022-11-07T08:02:05.754Z,1002.00
2022-11-07T08:07:05.632Z,1002.01
2022-11-07T08:12:05.557Z,1002.06
2022-11-07T08:17:05.490Z,1002.03
2022-11-07T08:22:05.398Z,1002.11
2022-11-07T08:27:05.364Z,1002.18
2022-11-07T08:32:05.302Z,1002.18
2022-11-07T08:37:05.187Z,1002.10
2022-11-07T08:42:05.127Z,1002.10
2022-11-07T08:47:08.399Z,1002.10
2022-11-07T08:52:05.009Z,1002.15
2022-11-07T08:57:04.932Z,1002.06
2022-11-07T09:02:47.512Z,1001.99
2022-11-07T09:07:05.782Z,1001.99
2022-11-07T09:12:04.720Z,1001.98
2022-11-07T09:17:04.733Z,1002.11
2022-11-07T09:22:04.619Z,1002.13
2022-11-07T09:27:04.523Z,1002.14
2022-11-07T09:32:23.366Z,1002.16
2022-11-07T09:37:05.444Z,1002.10
2022-11-07T09:42:04.334Z,1002.10
2022-11-07T09:47:04.246Z,1001.92
2022-11-07T09:52:04.223Z,1001.82
2022-11-07T09:57:04.134Z,1001.93
2022-11-07T10:02:04.144Z,1001.90
2022-11-07T10:07:03.973Z,1001.94
2022-11-07T10:12:03.913Z,1001.97
2022-11-07T10:17:03.905Z,1001.96
2022-11-07T10:22:03.816Z,1001.81
2022-11-07T10:27:03.720Z,1001.81
2022-11-07T10:32:03.666Z,1001.81
2022-11-07T10:37:03.601Z,1001.92
2022-11-07T10:42:03.556Z,1001.93
2022-11-07T10:47:03.472Z,1001.97
2022-11-07T10:52:03.466Z,1001.93
2022-11-07T10:57:03.352Z,1002.00
2022-11-07T11:02:03.397Z,1001.87
2022-11-07T11:07:03.309Z,1001.83
2022-11-07T11:12:03.163Z,1001.92
2022-11-07T11:17:03.160Z,1001.90
2022-11-07T11:22:08.614Z,1001.83
2022-11-07T11:27:03.954Z,1001.88
2022-11-07T11:32:02.929Z,1001.83
2022-11-07T11:37:02.969Z,1001.78
2022-11-07T11:42:02.757Z,1001.60
2022-11-07T11:47:02.772Z,1001.67
2022-11-07T11:52:02.623Z,1001.64
2022-11-07T11:57:02.562Z,1001.64
2022-11-07T12:02:02.494Z,1001.71
2022-11-07T12:07:02.479Z,1001.71
2022-11-07T12:12:02.357Z,1001.68
2022-11-07T12:17:02.381Z,1001.73
2022-11-07T12:22:02.549Z,1001.70
2022-11-07T12:27:02.171Z,1001.66
2022-11-07T12:32:02.120Z,1001.72
2022-11-07T12:37:02.200Z,1001.57
2022-11-07T12:42:01.967Z,1001.55
2022-11-07T12:47:01.938Z,1001.47
2022-11-07T12:52:01.816Z,1001.42
2022-11-07T12:57:01.794Z,1001.58
2022-11-07T13:02:01.805Z,1001.56
2022-11-07T13:07:01.607Z,1001.52
2022-11-07T13:12:01.594Z,1001.48
2022-11-07T13:17:01.514Z,1001.63
2022-11-07T13:22:01.424Z,1001.54
2022-11-07T13:27:01.361Z,1001.54
2022-11-07T13:32:01.272Z,1001.62
2022-11-07T13:37:01.200Z,1001.86
2022-11-07T13:42:01.173Z,1001.75
2022-11-07T13:47:01.362Z,1001.76
2022-11-07T13:52:01.108Z,1001.83
2022-11-07T13:57:00.991Z,1001.94
2022-11-07T14:02:00.971Z,1001.88
2022-11-07T14:07:00.846Z,1001.71
2022-11-07T14:12:00.777Z,1001.84
2022-11-07T14:17:00.845Z,1001.89
2022-11-07T14:22:01.589Z,1001.98
2022-11-07T14:27:00.579Z,1001.94
2022-11-07T14:32:00.573Z,1001.89
2022-11-07T14:37:00.456Z,1001.87
2022-11-07T14:42:02.739Z,1001.97
2022-11-07T14:47:00.500Z,1001.94
2022-11-07T14:52:00.254Z,1001.93
2022-11-07T14:57:00.200Z,1001.86
2022-11-07T15:02:00.217Z,1001.83
2022-11-07T15:07:00.031Z,1001.94
2022-11-07T15:12:00.127Z,1002.01
2022-11-07T15:16:59.927Z,1002.06
2022-11-07T15:21:59.843Z,1001.99
2022-11-07T15:26:59.811Z,1002.03
2022-11-07T15:31:59.760Z,1002.05
2022-11-07T15:36:59.689Z,1002.14
2022-11-07T15:41:59.586Z,1002.06
2022-11-07T15:46:59.506Z,1002.10
2022-11-07T15:51:59.429Z,1001.95
2022-11-07T15:56:59.418Z,1002.01
2022-11-07T16:01:59.420Z,1002.04
2022-11-07T16:07:00.135Z,1001.99
2022-11-07T16:11:59.172Z,1001.99
2022-11-07T16:16:59.111Z,1001.98
2022-11-07T16:21:59.036Z,1001.96
2022-11-07T16:26:59.729Z,1002.06
2022-11-07T16:31:58.922Z,1002.11
2022-11-07T16:36:58.826Z,1002.23
2022-11-07T16:41:58.783Z,1002.25
2022-11-07T16:46:58.746Z,1002.23
2022-11-07T16:51:58.653Z,1002.10
2022-11-07T16:56:58.544Z,1002.29
2022-11-07T17:01:58.606Z,1002.30
2022-11-07T17:06:58.451Z,1002.33
2022-11-07T17:11:58.371Z,1002.24
2022-11-07T17:17:00.941Z,1002.38
2022-11-07T17:21:58.302Z,1002.43
2022-11-07T17:26:58.184Z,1002.41
2022-11-07T17:31:58.102Z,1002.44
2022-11-07T17:36:58.045Z,1002.50
2022-11-07T17:41:58.002Z,1002.54
2022-11-07T17:46:57.940Z,1002.56
2022-11-07T17:51:57.960Z,1002.58
2022-11-07T17:56:57.793Z,1002.57
2022-11-07T18:01:57.833Z,1002.54
2022-11-07T18:06:57.783Z,1002.71
2022-11-07T18:11:57.660Z,1002.68
2022-11-07T18:16:57.559Z,1002.64
2022-11-07T18:21:57.485Z,1002.67
2022-11-07T18:26:57.502Z,1002.70
2022-11-07T18:31:57.423Z,1002.69
2022-11-07T18:36:57.280Z,1002.66
2022-11-07T18:41:57.215Z,1002.63
2022-11-07T18:46:57.163Z,1002.63
2022-11-07T18:51:57.068Z,1002.62
2022-11-07T18:56:57.025Z,1002.58
2022-11-07T19:01:57.026Z,1002.60
2022-11-07T19:06:57.232Z,1002.59
2022-11-07T19:11:56.823Z,1002.58
2022-11-07T19:16:56.725Z,1002.71
2022-11-07T19:21:56.693Z,1002.75
2022-11-07T19:26:56.626Z,1002.74
2022-11-07T19:31:56.553Z,1002.61
2022-11-07T19:36:56.477Z,1002.57
2022-11-07T19:41:56.405Z,1002.55
2022-11-07T19:46:56.353Z,1002.61
2022-11-07T19:51:56.311Z,1002.63
2022-11-07T19:56:57.635Z,1002.64
2022-11-07T20:02:25.766Z,1002.61
2022-11-07T20:06:57.085Z,1002.72
2022-11-07T20:11:56.056Z,1002.65
2022-11-07T20:16:56.056Z,1002.71
2022-11-07T20:21:55.907Z,1002.69
2022-11-07T20:26:55.815Z,1002.73
2022-11-07T20:31:55.859Z,1002.79
2022-11-07T20:36:55.712Z,1002.78
2022-11-07T20:41:55.695Z,1002.91
2022-11-07T20:46:55.561Z,1002.97
2022-11-07T20:51:55.476Z,1003.05
2022-11-07T20:56:55.419Z,1003.06
2022-11-07T21:02:00.189Z,1002.92
2022-11-07T21:06:56.331Z,1003.03
2022-11-07T21:11:55.223Z,1002.99
2022-11-07T21:16:55.153Z,1002.99
2022-11-07T21:21:55.136Z,1003.05
2022-11-07T21:26:55.009Z,1003.05
2022-11-07T21:31:54.953Z,1003.06
2022-11-07T21:36:54.909Z,1003.07
2022-11-07T21:41:54.837Z,1003.07
2022-11-07T21:46:54.738Z,1003.03
2022-11-07T21:51:54.725Z,1003.03
2022-11-07T21:56:54.607Z,1003.10
2022-11-07T22:01:54.656Z,1003.08
2022-11-07T22:06:54.489Z,1003.11
2022-11-07T22:11:54.430Z,1003.06
2022-11-07T22:16:54.363Z,1002.95
2022-11-07T22:21:54.297Z,1003.01
2022-11-07T22:26:54.233Z,1003.08
2022-11-07T22:31:54.172Z,1003.07
2022-11-07T22:36:54.119Z,1003.02
2022-11-07T22:41:54.027Z,1002.96
2022-11-07T22:46:53.983Z,1002.96
2022-11-07T22:51:53.892Z,1003.05
2022-11-07T22:56:53.826Z,1002.93
2022-11-07T23:01:53.889Z,1002.93
2022-11-07T23:06:53.739Z,1002.92
2022-11-07T23:11:53.673Z,1002.99
2022-11-07T23:16:53.568Z,1002.93
2022-11-07T23:21:53.536Z,1002.99
2022-11-07T23:26:53.485Z,1002.97
2022-11-07T23:31:53.443Z,1002.84
2022-11-07T23:36:53.311Z,1002.84
2022-11-07T23:41:53.336Z,1002.80
2022-11-07T23:46:53.176Z,1002.79
2022-11-07T23:51:53.121Z,1002.87
2022-11-07T23:56:53.071Z,1002.81
